createdAt,value
2023-04-04T00:00:18.859Z,66.62
2023-04-04T00:02:49.424Z,64.44
2023-04-04T00:05:20.884Z,63.13
2023-04-04T00:07:51.520Z,63.67
2023-04-04T00:10:23.001Z,63.05
2023-04-04T00:12:56.923Z,62.36
2023-04-04T00:15:33.380Z,63.03
2023-04-04T00:18:03.983Z,67.11
2023-04-04T00:20:38.450Z,62.18
2023-04-04T00:23:13.643Z,65.19
2023-04-04T00:25:47.819Z,64.43
2023-04-04T00:28:19.509Z,62.05
2023-04-04T00:30:52.130Z,63.53
2023-04-04T00:33:23.472Z,63.08
2023-04-04T00:35:58.694Z,63.49
2023-04-04T00:38:30.356Z,62.84
2023-04-04T00:41:04.173Z,62.66
2023-04-04T00:43:45.794Z,62.21
2023-04-04T00:46:16.539Z,62.85
2023-04-04T00:48:45.053Z,63.12
2023-04-04T00:51:19.649Z,63.30
2023-04-04T00:53:49.509Z,65.22
2023-04-04T00:56:29.135Z,63.65
2023-04-04T00:59:06.154Z,65.73
2023-04-04T01:01:40.949Z,63.05
2023-04-04T01:04:11.667Z,62.49
2023-04-04T01:06:56.349Z,63.33
2023-04-04T01:09:27.291Z,65.33
2023-04-04T01:11:58.407Z,65.78
2023-04-04T01:14:34.971Z,64.84
2023-04-04T01:17:10.659Z,63.06
2023-04-04T01:20:13.320Z,63.80
2023-04-04T01:22:56.330Z,67.90
2023-04-04T01:25:34.789Z,64.95
2023-04-04T01:28:14.573Z,64.88
2023-04-04T01:30:55.278Z,64.39
2023-04-04T01:33:49.107Z,64.24
2023-04-04T01:36:52.115Z,67.08
2023-04-04T01:39:34.103Z,71.74
2023-04-04T01:42:05.964Z,69.46
2023-04-04T01:44:38.240Z,67.48
2023-04-04T01:47:12.199Z,67.70
2023-04-04T01:49:56.149Z,67.68
2023-04-04T01:52:27.966Z,67.07
2023-04-04T01:54:59.042Z,68.71
2023-04-04T02:00:24.056Z,64.41
2023-04-04T02:02:54.825Z,68.00
2023-04-04T02:05:26.374Z,69.64
2023-04-04T02:08:00.221Z,68.95
2023-04-04T02:10:51.548Z,67.53
2023-04-04T02:13:22.371Z,66.59
2023-04-04T02:15:55.549Z,67.97
2023-04-04T02:18:26.294Z,68.89
2023-04-04T02:21:01.366Z,67.24
2023-04-04T02:23:33.456Z,64.53
2023-04-04T02:26:21.668Z,64.22
2023-04-04T02:28:51.725Z,67.22
2023-04-04T02:31:23.202Z,63.64
2023-04-04T02:33:55.644Z,65.00
2023-04-04T02:36:25.399Z,63.68
2023-04-04T02:38:58.589Z,65.68
2023-04-04T02:41:35.714Z,68.67
2023-04-04T02:44:08.919Z,69.41
2023-04-04T02:46:40.832Z,68.48
2023-04-04T02:49:14.577Z,68.16
2023-04-04T02:51:52.239Z,69.05
2023-04-04T02:54:31.496Z,66.92
2023-04-04T02:57:07.978Z,64.76
2023-04-04T02:59:38.359Z,64.19
2023-04-04T03:02:20.173Z,64.68
2023-04-04T03:04:51.091Z,66.01
2023-04-04T03:07:25.126Z,64.28
2023-04-04T03:09:58.634Z,65.53
2023-04-04T03:12:27.634Z,66.06
2023-04-04T03:15:02.312Z,64.53
2023-04-04T03:17:33.236Z,66.01
2023-04-04T03:20:04.347Z,68.46
2023-04-04T03:22:41.709Z,65.18
2023-04-04T03:27:58.118Z,64.39
2023-04-04T03:33:16.345Z,64.69
2023-04-04T03:36:00.485Z,61.44
2023-04-04T03:38:36.619Z,65.46
2023-04-04T03:41:10.900Z,65.78
2023-04-04T03:43:54.496Z,66.33
2023-04-04T03:46:30.158Z,65.83
2023-04-04T03:49:03.452Z,67.53
2023-04-04T03:51:39.434Z,64.41
2023-04-04T03:54:10.041Z,63.16
2023-04-04T03:56:48.724Z,62.88
2023-04-04T03:59:25.380Z,62.32
2023-04-04T04:02:06.505Z,63.65
2023-04-04T04:04:35.300Z,61.81
2023-04-04T04:07:09.161Z,64.13
2023-04-04T04:09:40.814Z,64.20
2023-04-04T04:12:13.781Z,65.95
2023-04-04T04:14:44.509Z,63.46
2023-04-04T04:17:25.910Z,64.30
2023-04-04T04:19:57.919Z,64.32
2023-04-04T04:22:30.237Z,63.04
2023-04-04T04:27:48.175Z,63.36
2023-04-04T04:30:17.571Z,62.83
2023-04-04T04:32:56.506Z,63.66
2023-04-04T04:35:34.391Z,65.47
2023-04-04T04:38:07.182Z,64.87
2023-04-04T04:40:42.284Z,64.75
2023-04-04T04:43:20.228Z,67.04
2023-04-04T04:45:53.826Z,67.58
2023-04-04T04:48:28.711Z,70.08
2023-04-04T04:51:04.243Z,73.50
2023-04-04T04:53:55.421Z,70.84
2023-04-04T04:56:38.783Z,71.38
2023-04-04T04:59:20.128Z,69.49
2023-04-04T05:01:55.386Z,69.14
2023-04-04T05:04:31.697Z,69.62
2023-04-04T05:07:09.554Z,69.92
2023-04-04T05:09:40.503Z,71.28
2023-04-04T05:12:19.677Z,72.88
2023-04-04T05:14:56.757Z,72.06
2023-04-04T05:17:27.314Z,69.14
2023-04-04T05:22:53.688Z,70.44
2023-04-04T05:25:35.765Z,66.66
2023-04-04T05:28:11.003Z,69.37
2023-04-04T05:30:47.566Z,69.01
2023-04-04T05:33:26.718Z,69.11
2023-04-04T05:36:19.374Z,72.95
2023-04-04T05:39:05.832Z,76.84
2023-04-04T05:41:48.480Z,71.05
2023-04-04T05:44:24.298Z,79.89
2023-04-04T05:46:55.499Z,72.13
2023-04-04T05:49:27.346Z,70.78
2023-04-04T05:52:03.397Z,70.53
2023-04-04T05:54:46.917Z,70.50
2023-04-04T05:57:27.569Z,68.76
2023-04-04T06:00:04.936Z,67.88
2023-04-04T06:03:00.885Z,72.59
2023-04-04T06:05:36.923Z,69.04
2023-04-04T06:08:08.123Z,73.17
2023-04-04T06:10:43.883Z,68.64
2023-04-04T06:13:21.689Z,70.82
2023-04-04T06:16:01.677Z,67.70
2023-04-04T06:18:29.996Z,71.20
2023-04-04T06:21:04.139Z,70.50
2023-04-04T06:23:35.168Z,67.62
2023-04-04T06:26:12.810Z,65.80
2023-04-04T06:28:58.933Z,66.90
2023-04-04T06:31:39.274Z,67.83
2023-04-04T06:34:27.713Z,63.26
2023-04-04T06:37:08.313Z,58.82
2023-04-04T06:39:44.242Z,62.18
2023-04-04T06:42:37.123Z,63.40
2023-04-04T06:45:12.879Z,63.66
2023-04-04T06:47:58.232Z,61.82
2023-04-04T06:50:28.704Z,61.87
2023-04-04T06:53:02.535Z,56.91
2023-04-04T06:55:44.294Z,62.27
2023-04-04T06:58:18.056Z,57.14
2023-04-04T07:00:48.112Z,58.34
2023-04-04T07:06:16.479Z,56.42
2023-04-04T07:08:45.601Z,55.36
2023-04-04T07:11:14.000Z,57.82
2023-04-04T07:13:47.197Z,56.67
2023-04-04T07:16:18.762Z,56.45
2023-04-04T07:18:50.364Z,52.76
2023-04-04T07:21:21.490Z,56.69
2023-04-04T07:23:53.981Z,58.72
2023-04-04T07:26:30.568Z,57.95
2023-04-04T07:29:01.880Z,54.11
2023-04-04T07:31:35.302Z,53.56
2023-04-04T07:36:51.989Z,55.70
2023-04-04T07:39:25.110Z,53.90
2023-04-04T07:41:57.593Z,55.03
2023-04-04T07:44:30.472Z,57.83
2023-04-04T07:47:09.343Z,57.71
2023-04-04T07:49:44.931Z,51.79
2023-04-04T07:52:19.064Z,55.35
2023-04-04T07:54:48.875Z,57.19
2023-04-04T07:57:19.314Z,57.07
2023-04-04T07:59:49.896Z,54.12
2023-04-04T08:02:33.828Z,53.78
2023-04-04T08:05:12.827Z,51.45
2023-04-04T08:07:43.521Z,50.65
2023-04-04T08:10:21.653Z,53.35
2023-04-04T08:12:55.552Z,54.13
2023-04-04T08:15:32.247Z,57.82
2023-04-04T08:18:12.640Z,50.93
2023-04-04T08:20:42.840Z,51.00
2023-04-04T08:23:16.140Z,48.56
2023-04-04T08:25:46.960Z,49.15
2023-04-04T08:28:17.515Z,50.52
2023-04-04T08:30:45.834Z,48.29
2023-04-04T08:33:28.979Z,48.04
2023-04-04T08:36:10.603Z,55.15
2023-04-04T08:38:38.609Z,54.96
2023-04-04T08:41:09.690Z,48.12
2023-04-04T08:46:29.696Z,52.17
2023-04-04T08:49:00.434Z,55.04
2023-04-04T08:51:38.428Z,52.83
2023-04-04T08:54:10.120Z,48.48
2023-04-04T08:56:42.418Z,52.39
2023-04-04T08:59:24.251Z,54.31
2023-04-04T09:02:06.502Z,53.05
2023-04-04T09:04:58.165Z,52.62
2023-04-04T09:07:56.617Z,51.49
2023-04-04T09:10:32.481Z,43.67
2023-04-04T09:13:14.763Z,51.12
2023-04-04T09:15:58.338Z,46.29
2023-04-04T09:18:30.121Z,52.21
2023-04-04T09:21:00.334Z,51.66
2023-04-04T09:23:33.098Z,48.90
2023-04-04T09:26:04.657Z,48.73
2023-04-04T09:28:35.658Z,52.49
2023-04-04T09:31:11.187Z,51.36
2023-04-04T09:33:53.831Z,48.19
2023-04-04T09:36:24.608Z,49.09
2023-04-04T09:39:02.243Z,46.06
2023-04-04T09:41:36.659Z,47.38
2023-04-04T09:44:17.808Z,50.11
2023-04-04T09:46:54.420Z,46.62
2023-04-04T09:49:25.661Z,47.25
2023-04-04T09:51:59.528Z,49.69
2023-04-04T09:57:19.414Z,42.28
2023-04-04T09:59:54.474Z,42.42
2023-04-04T10:02:33.511Z,46.49
2023-04-04T10:07:45.177Z,39.49
2023-04-04T10:10:15.591Z,42.31
2023-04-04T10:12:53.229Z,45.42
2023-04-04T10:15:27.442Z,41.53
2023-04-04T10:18:08.120Z,42.99
2023-04-04T10:20:43.673Z,44.44
2023-04-04T10:23:18.029Z,44.34
2023-04-04T10:25:48.414Z,44.90
2023-04-04T10:28:35.007Z,41.27
2023-04-04T10:31:25.838Z,41.22
2023-04-04T10:34:32.756Z,42.14
2023-04-04T10:37:15.251Z,43.40
2023-04-04T10:40:16.769Z,50.24
2023-04-04T10:42:51.022Z,40.49
2023-04-04T10:45:28.245Z,41.18
2023-04-04T10:47:59.245Z,40.53
2023-04-04T10:50:33.225Z,43.46
2023-04-04T10:55:52.684Z,40.26
2023-04-04T10:58:46.333Z,46.60
2023-04-04T11:01:24.069Z,39.88
2023-04-04T11:04:34.129Z,42.92
2023-04-04T11:07:13.044Z,47.49
2023-04-04T11:10:00.165Z,37.27
2023-04-04T11:12:40.597Z,44.47
2023-04-04T11:15:21.917Z,42.87
2023-04-04T11:18:17.308Z,42.50
2023-04-04T11:21:03.930Z,41.76
2023-04-04T11:24:00.701Z,42.13
2023-04-04T11:26:32.812Z,37.87
2023-04-04T11:29:18.903Z,41.78
2023-04-04T11:31:47.249Z,39.49
2023-04-04T11:37:20.117Z,40.09
2023-04-04T11:40:03.030Z,39.81
2023-04-04T11:42:41.693Z,40.08
2023-04-04T11:45:28.105Z,43.43
2023-04-04T11:47:58.593Z,40.36
2023-04-04T11:50:28.509Z,41.34
2023-04-04T11:53:02.353Z,39.54
2023-04-04T11:55:38.710Z,37.36
2023-04-04T11:58:15.403Z,35.60
2023-04-04T12:00:49.504Z,35.08
2023-04-04T12:03:29.135Z,33.65
2023-04-04T12:06:01.585Z,38.86
2023-04-04T12:08:36.987Z,34.01
2023-04-04T12:11:13.915Z,34.61
2023-04-04T12:13:46.879Z,34.16
2023-04-04T12:16:18.299Z,36.08
2023-04-04T12:18:50.230Z,37.52
2023-04-04T12:21:29.597Z,35.58
2023-04-04T12:24:00.497Z,35.14
2023-04-04T12:26:36.777Z,30.49
2023-04-04T12:29:10.541Z,37.32
2023-04-04T12:31:43.343Z,32.29
2023-04-04T12:34:31.544Z,34.24
2023-04-04T12:37:09.763Z,35.73
2023-04-04T12:39:46.842Z,34.09
2023-04-04T12:42:28.749Z,32.34
2023-04-04T12:45:08.125Z,27.18
2023-04-04T12:47:54.913Z,31.15
2023-04-04T12:50:31.941Z,29.73
2023-04-04T12:53:23.838Z,31.99
2023-04-04T12:56:00.343Z,27.23
2023-04-04T12:58:33.836Z,26.50
2023-04-04T13:01:10.677Z,30.34
2023-04-04T13:03:45.250Z,34.88
2023-04-04T13:06:21.461Z,31.08
2023-04-04T13:08:59.192Z,30.20
2023-04-04T13:11:33.704Z,29.98
2023-04-04T13:16:51.820Z,30.87
2023-04-04T13:19:25.047Z,30.78
2023-04-04T13:21:56.623Z,29.93
2023-04-04T13:27:14.958Z,25.62
2023-04-04T13:29:46.398Z,27.67
2023-04-04T13:32:20.438Z,26.05
2023-04-04T13:34:50.805Z,29.70
2023-04-04T13:37:21.298Z,28.80
2023-04-04T13:42:36.697Z,28.00
2023-04-04T13:45:06.694Z,24.96
2023-04-04T13:47:39.954Z,25.70
2023-04-04T13:50:26.129Z,24.08
2023-04-04T13:52:56.703Z,25.90
2023-04-04T13:55:31.326Z,25.45
2023-04-04T13:58:05.459Z,25.79
2023-04-04T14:00:48.419Z,23.58
2023-04-04T14:03:22.462Z,23.65
2023-04-04T14:05:53.522Z,23.13
2023-04-04T14:08:26.660Z,23.51
2023-04-04T14:11:04.305Z,21.68
2023-04-04T14:13:38.338Z,22.75
2023-04-04T14:16:18.453Z,22.18
2023-04-04T14:18:53.480Z,20.83
2023-04-04T14:21:30.009Z,25.25
2023-04-04T14:24:02.797Z,27.57
2023-04-04T14:26:35.156Z,29.30
2023-04-04T14:29:08.858Z,27.41
2023-04-04T14:31:40.082Z,26.76
2023-04-04T14:34:13.556Z,26.36
2023-04-04T14:36:45.021Z,25.75
2023-04-04T14:39:21.979Z,25.67
2023-04-04T14:42:00.810Z,26.52
2023-04-04T14:47:18.112Z,25.58
2023-04-04T14:49:52.754Z,24.42
2023-04-04T14:52:22.420Z,25.21
2023-04-04T14:54:52.696Z,23.27
2023-04-04T14:57:24.010Z,22.18
2023-04-04T15:00:04.757Z,24.14
2023-04-04T15:02:37.753Z,24.36
2023-04-04T15:05:09.315Z,22.95
2023-04-04T15:07:43.064Z,23.53
2023-04-04T15:10:14.107Z,23.43
2023-04-04T15:12:45.225Z,25.37
2023-04-04T15:15:15.814Z,25.80
2023-04-04T15:17:50.588Z,25.72
2023-04-04T15:20:23.358Z,28.39
2023-04-04T15:22:55.131Z,24.16
2023-04-04T15:25:40.518Z,29.37
2023-04-04T15:28:14.774Z,29.02
2023-04-04T15:30:45.738Z,28.90
2023-04-04T15:33:25.589Z,29.88
2023-04-04T15:36:00.843Z,27.77
2023-04-04T15:38:41.029Z,29.12
2023-04-04T15:41:20.931Z,28.96
2023-04-04T15:43:57.516Z,29.67
2023-04-04T15:46:31.398Z,30.85
2023-04-04T15:49:01.789Z,30.00
2023-04-04T15:51:43.786Z,32.13
2023-04-04T15:54:24.515Z,33.09
2023-04-04T15:56:57.201Z,31.42
2023-04-04T15:59:43.308Z,29.46
2023-04-04T16:02:13.824Z,33.75
2023-04-04T16:04:48.468Z,32.53
2023-04-04T16:07:24.783Z,33.35
2023-04-04T16:10:07.315Z,34.75
2023-04-04T16:12:35.169Z,34.42
2023-04-04T16:15:10.127Z,31.69
2023-04-04T16:17:40.887Z,33.02
2023-04-04T16:20:11.432Z,37.40
2023-04-04T16:22:56.135Z,37.06
2023-04-04T16:25:33.740Z,34.58
2023-04-04T16:30:52.656Z,35.52
2023-04-04T16:33:24.097Z,37.25
2023-04-04T16:36:03.705Z,37.60
2023-04-04T16:38:34.795Z,36.25
2023-04-04T16:41:04.550Z,35.70
2023-04-04T16:43:36.809Z,38.92
2023-04-04T16:46:06.334Z,35.74
2023-04-04T16:48:43.684Z,37.73
2023-04-04T16:51:20.285Z,36.51
2023-04-04T16:53:50.998Z,36.23
2023-04-04T16:56:30.784Z,35.06
2023-04-04T16:59:00.216Z,35.94
2023-04-04T17:01:44.671Z,36.55
2023-04-04T17:04:18.663Z,36.60
2023-04-04T17:06:58.251Z,37.00
2023-04-04T17:09:37.326Z,38.53
2023-04-04T17:12:08.997Z,37.26
2023-04-04T17:14:40.134Z,37.06
2023-04-04T17:17:14.903Z,39.16
2023-04-04T17:19:45.903Z,38.15
2023-04-04T17:22:18.851Z,39.80
2023-04-04T17:24:47.055Z,38.92
2023-04-04T17:27:21.611Z,40.52
2023-04-04T17:29:55.206Z,40.21
2023-04-04T17:32:41.233Z,39.71
2023-04-04T17:35:17.238Z,40.30
2023-04-04T17:40:30.020Z,41.97
2023-04-04T17:43:13.059Z,42.79
2023-04-04T17:45:48.291Z,43.47
2023-04-04T17:48:19.900Z,44.90
2023-04-04T17:50:48.255Z,45.36
2023-04-04T17:53:22.919Z,45.24
2023-04-04T17:55:53.335Z,46.69
2023-04-04T17:58:33.687Z,46.48
2023-04-04T18:01:08.448Z,46.81
2023-04-04T18:03:40.954Z,48.40
2023-04-04T18:06:11.742Z,47.83
2023-04-04T18:08:53.969Z,48.02
2023-04-04T18:11:25.154Z,48.69
2023-04-04T18:13:58.796Z,47.71
2023-04-04T18:16:29.441Z,49.49
2023-04-04T18:19:02.670Z,49.84
2023-04-04T18:21:34.752Z,51.01
2023-04-04T18:24:13.662Z,50.01
2023-04-04T18:26:45.410Z,50.51
2023-04-04T18:29:18.603Z,51.08
2023-04-04T18:31:49.517Z,50.94
2023-04-04T18:36:59.276Z,52.68
2023-04-04T18:39:36.599Z,51.88
2023-04-04T18:42:09.589Z,52.19
2023-04-04T18:47:26.226Z,50.93
2023-04-04T18:49:59.026Z,50.77
2023-04-04T18:52:37.019Z,50.87
2023-04-04T18:55:16.035Z,53.07
2023-04-04T18:57:51.578Z,52.49
2023-04-04T19:00:23.120Z,51.17
2023-04-04T19:03:01.496Z,53.03
2023-04-04T19:05:43.938Z,51.53
2023-04-04T19:08:18.220Z,51.48
2023-04-04T19:10:51.314Z,52.78
2023-04-04T19:13:21.818Z,52.99
2023-04-04T19:15:54.246Z,54.26
2023-04-04T19:18:25.818Z,52.68
2023-04-04T19:20:58.930Z,52.57
2023-04-04T19:23:29.050Z,52.36
2023-04-04T19:26:04.916Z,53.73
2023-04-04T19:28:48.010Z,55.18
2023-04-04T19:31:22.446Z,53.82
2023-04-04T19:33:58.495Z,55.14
2023-04-04T19:36:30.133Z,55.66
2023-04-04T19:39:00.655Z,54.13
2023-04-04T19:41:54.657Z,54.93
2023-04-04T19:44:29.452Z,57.96
2023-04-04T19:47:04.159Z,58.25
2023-04-04T19:49:49.223Z,56.24
2023-04-04T19:52:29.985Z,55.38
2023-04-04T19:54:57.717Z,54.47
2023-04-04T19:57:31.008Z,55.28
2023-04-04T20:00:17.611Z,55.68
2023-04-04T20:02:56.817Z,55.51
2023-04-04T20:05:37.404Z,56.81
2023-04-04T20:08:07.828Z,56.76
2023-04-04T20:10:44.985Z,55.78
2023-04-04T20:13:23.089Z,58.64
2023-04-04T20:16:12.940Z,57.12
2023-04-04T20:18:44.763Z,55.68
2023-04-04T20:21:29.488Z,57.14
2023-04-04T20:24:07.309Z,57.02
2023-04-04T20:27:01.216Z,59.53
2023-04-04T20:29:48.633Z,62.53
2023-04-04T20:32:19.322Z,61.83
2023-04-04T20:34:59.896Z,60.45
2023-04-04T20:37:31.467Z,60.98
2023-04-04T20:40:06.689Z,60.38
2023-04-04T20:42:51.023Z,61.16
2023-04-04T20:45:50.148Z,58.09
2023-04-04T20:48:43.671Z,56.98
2023-04-04T20:51:33.530Z,61.61
2023-04-04T20:54:06.666Z,61.45
2023-04-04T20:56:59.762Z,59.70
2023-04-04T20:59:41.233Z,61.61
2023-04-04T21:02:10.884Z,60.43
2023-04-04T21:04:45.887Z,56.69
2023-04-04T21:07:40.673Z,54.96
2023-04-04T21:10:27.436Z,54.85
2023-04-04T21:13:01.715Z,54.21
2023-04-04T21:15:48.698Z,55.01
2023-04-04T21:18:26.493Z,55.77
2023-04-04T21:21:23.235Z,59.32
2023-04-04T21:23:55.909Z,58.36
2023-04-04T21:27:12.873Z,59.32
2023-04-04T21:29:48.088Z,59.62
2023-04-04T21:32:24.028Z,65.72
2023-04-04T21:34:56.160Z,70.57
2023-04-04T21:37:31.614Z,65.32
2023-04-04T21:40:05.468Z,59.55
2023-04-04T21:42:37.506Z,67.32
2023-04-04T21:45:05.908Z,59.53
2023-04-04T21:47:33.858Z,61.14
2023-04-04T21:50:04.682Z,66.53
2023-04-04T21:52:42.906Z,63.81
2023-04-04T21:55:21.509Z,66.03
2023-04-04T21:57:55.565Z,84.11
2023-04-04T22:00:28.718Z,71.74
2023-04-04T22:05:49.712Z,65.49
2023-04-04T22:08:25.632Z,74.76
2023-04-04T22:11:05.443Z,92.11
2023-04-04T22:13:42.862Z,82.55
2023-04-04T22:16:18.899Z,76.90
2023-04-04T22:18:54.753Z,79.62
2023-04-04T22:21:30.263Z,93.40
2023-04-04T22:24:12.660Z,92.55
2023-04-04T22:26:41.906Z,89.57
2023-04-04T22:29:15.214Z,78.48
2023-04-04T22:31:46.459Z,75.07
2023-04-04T22:34:17.016Z,90.18
2023-04-04T22:36:46.664Z,91.56
2023-04-04T22:39:23.814Z,95.90
2023-04-04T22:41:56.411Z,97.73
2023-04-04T22:44:27.604Z,100.00
2023-04-04T22:46:59.318Z,100.00
2023-04-04T22:49:33.176Z,100.00
2023-04-04T22:52:15.690Z,100.00
2023-04-04T22:54:58.409Z,100.00
2023-04-04T22:57:29.112Z,100.00
2023-04-04T23:00:00.205Z,100.00
2023-04-04T23:02:33.189Z,100.00
2023-04-04T23:05:04.316Z,100.00
2023-04-04T23:07:34.829Z,100.00
2023-04-04T23:10:16.835Z,100.00
2023-04-04T23:12:48.440Z,100.00
2023-04-04T23:15:19.794Z,100.00
2023-04-04T23:17:47.737Z,100.00
2023-04-04T23:20:18.826Z,100.00
2023-04-04T23:22:53.263Z,100.00
2023-04-04T23:25:30.329Z,100.00
2023-04-04T23:27:58.328Z,100.00
2023-04-04T23:30:29.081Z,100.00
2023-04-04T23:33:06.535Z,100.00
2023-04-04T23:35:36.359Z,100.00
2023-04-04T23:38:07.459Z,100.00
2023-04-04T23:40:44.949Z,100.00
2023-04-04T23:43:15.920Z,100.00
2023-04-04T23:45:47.607Z,100.00
2023-04-04T23:51:06.661Z,100.00
2023-04-04T23:53:46.812Z,100.00
2023-04-04T23:56:20.406Z,100.00
2023-04-04T23:58:50.749Z,100.00
